sensor_id;sensor_type;location;lat;lon;timestamp;P1;durP1;ratioP1;P2;durP2;ratioP2
13319;SDS011;59599;47.608;12.190;2023-03-23T00:01:24;6.70;;;2.40;;
13319;SDS011;59599;47.608;12.190;2023-03-23T00:03:52;4.00;;;2.10;;
13319;SDS011;59599;47.608;12.190;2023-03-23T00:06:21;5.13;;;2.53;;
13319;SDS011;59599;47.608;12.190;2023-03-23T00:08:48;4.40;;;2.40;;
13319;SDS011;59599;47.608;12.190;2023-03-23T00:11:20;4.53;;;2.30;;
13319;SDS011;59599;47.608;12.190;2023-03-23T00:13:48;7.50;;;2.40;;
13319;SDS011;59599;47.608;12.190;2023-03-23T00:16:19;4.20;;;2.70;;
13319;SDS011;59599;47.608;12.190;2023-03-23T00:18:55;12.60;;;2.40;;
13319;SDS011;59599;47.608;12.190;2023-03-23T00:21:23;3.67;;;2.43;;
13319;SDS011;59599;47.608;12.190;2023-03-23T00:24:18;4.03;;;2.20;;
13319;SDS011;59599;47.608;12.190;2023-03-23T05:01:03;4.93;;;3.60;;
13319;SDS011;59599;47.608;12.190;2023-03-23T05:03:29;8.50;;;3.60;;
13319;SDS011;59599;47.608;12.190;2023-03-23T05:05:55;7.47;;;3.70;;
13319;SDS011;59599;47.608;12.190;2023-03-23T05:08:21;5.93;;;3.57;;
13319;SDS011;59599;47.608;12.190;2023-03-23T05:10:53;4.77;;;3.53;;
13319;SDS011;59599;47.608;12.190;2023-03-23T05:13:20;5.77;;;2.80;;
13319;SDS011;59599;47.608;12.190;2023-03-23T05:15:46;6.40;;;2.60;;
13319;SDS011;59599;47.608;12.190;2023-03-23T05:18:12;6.93;;;3.00;;
13319;SDS011;59599;47.608;12.190;2023-03-23T05:20:38;3.50;;;2.77;;
13319;SDS011;59599;47.608;12.190;2023-03-23T05:23:04;6.60;;;2.60;;
13319;SDS011;59599;47.608;12.190;2023-03-23T05:25:30;4.90;;;2.60;;
13319;SDS011;59599;47.608;12.190;2023-03-23T05:28:01;4.30;;;3.30;;
13319;SDS011;59599;47.608;12.190;2023-03-23T05:30:27;2.93;;;2.50;;
13319;SDS011;59599;47.608;12.190;2023-03-23T05:32:53;5.87;;;2.80;;
13319;SDS011;59599;47.608;12.190;2023-03-23T05:35:18;6.30;;;3.17;;
13319;SDS011;59599;47.608;12.190;2023-03-23T05:37:45;6.67;;;3.70;;
13319;SDS011;59599;47.608;12.190;2023-03-23T05:40:11;4.80;;;2.77;;
13319;SDS011;59599;47.608;12.190;2023-03-23T05:42:38;9.23;;;3.13;;
13319;SDS011;59599;47.608;12.190;2023-03-23T05:45:06;7.33;;;3.00;;
13319;SDS011;59599;47.608;12.190;2023-03-23T05:47:33;4.17;;;2.90;;
13319;SDS011;59599;47.608;12.190;2023-03-23T05:49:59;7.47;;;2.77;;
13319;SDS011;59599;47.608;12.190;2023-03-23T05:52:25;6.40;;;3.40;;
13319;SDS011;59599;47.608;12.190;2023-03-23T05:54:51;8.90;;;3.00;;
13319;SDS011;59599;47.608;12.190;2023-03-23T05:57:18;5.37;;;2.70;;
13319;SDS011;59599;47.608;12.190;2023-03-23T05:59:46;5.23;;;2.90;;
13319;SDS011;59599;47.608;12.190;2023-03-23T06:02:12;6.27;;;3.80;;
13319;SDS011;59599;47.608;12.190;2023-03-23T06:04:41;7.10;;;3.70;;
13319;SDS011;59599;47.608;12.190;2023-03-23T06:07:07;8.10;;;3.77;;
13319;SDS011;59599;47.608;12.190;2023-03-23T06:09:38;7.07;;;3.60;;
13319;SDS011;59599;47.608;12.190;2023-03-23T06:12:05;6.87;;;3.03;;
13319;SDS011;59599;47.608;12.190;2023-03-23T06:14:31;4.93;;;2.67;;
13319;SDS011;59599;47.608;12.190;2023-03-23T06:16:57;7.47;;;2.93;;
13319;SDS011;59599;47.608;12.190;2023-03-23T06:19:23;4.20;;;2.20;;
13319;SDS011;59599;47.608;12.190;2023-03-23T06:21:51;5.80;;;2.50;;
13319;SDS011;59599;47.608;12.190;2023-03-23T06:24:17;5.67;;;2.87;;
13319;SDS011;59599;47.608;12.190;2023-03-23T06:26:43;5.27;;;3.00;;
13319;SDS011;59599;47.608;12.190;2023-03-23T06:29:09;4.13;;;2.50;;
13319;SDS011;59599;47.608;12.190;2023-03-23T06:31:43;3.23;;;2.93;;
13319;SDS011;59599;47.608;12.190;2023-03-23T06:34:11;5.33;;;2.73;;
13319;SDS011;59599;47.608;12.190;2023-03-23T06:36:37;10.47;;;3.30;;
13319;SDS011;59599;47.608;12.190;2023-03-23T06:39:04;4.30;;;3.07;;
13319;SDS011;59599;47.608;12.190;2023-03-23T06:41:33;3.20;;;2.90;;
13319;SDS011;59599;47.608;12.190;2023-03-23T06:43:59;6.40;;;3.13;;
13319;SDS011;59599;47.608;12.190;2023-03-23T06:46:25;5.00;;;3.40;;
13319;SDS011;59599;47.608;12.190;2023-03-23T06:48:51;5.73;;;3.10;;
13319;SDS011;59599;47.608;12.190;2023-03-23T06:51:17;6.70;;;3.00;;
13319;SDS011;59599;47.608;12.190;2023-03-23T06:53:43;11.00;;;3.80;;
13319;SDS011;59599;47.608;12.190;2023-03-23T06:56:08;4.47;;;3.43;;
13319;SDS011;59599;47.608;12.190;2023-03-23T06:58:35;6.43;;;3.13;;
13319;SDS011;59599;47.608;12.190;2023-03-23T07:01:01;7.07;;;3.40;;
13319;SDS011;59599;47.608;12.190;2023-03-23T07:03:27;10.33;;;3.53;;
13319;SDS011;59599;47.608;12.190;2023-03-23T07:05:53;8.80;;;3.20;;
13319;SDS011;59599;47.608;12.190;2023-03-23T07:08:19;6.10;;;3.20;;
13319;SDS011;59599;47.608;12.190;2023-03-23T07:10:45;4.47;;;3.30;;
13319;SDS011;59599;47.608;12.190;2023-03-23T07:13:11;6.37;;;2.87;;
13319;SDS011;59599;47.608;12.190;2023-03-23T07:15:38;4.27;;;2.93;;
13319;SDS011;59599;47.608;12.190;2023-03-23T07:18:03;5.97;;;2.67;;
13319;SDS011;59599;47.608;12.190;2023-03-23T07:20:29;8.90;;;3.33;;
13319;SDS011;59599;47.608;12.190;2023-03-23T07:22:55;6.40;;;3.40;;
13319;SDS011;59599;47.608;12.190;2023-03-23T07:25:21;5.60;;;3.17;;
13319;SDS011;59599;47.608;12.190;2023-03-23T07:27:47;5.70;;;2.80;;
13319;SDS011;59599;47.608;12.190;2023-03-23T07:30:13;3.10;;;2.73;;
13319;SDS011;59599;47.608;12.190;2023-03-23T07:32:40;3.37;;;2.80;;
13319;SDS011;59599;47.608;12.190;2023-03-23T07:35:06;6.00;;;2.70;;
13319;SDS011;59599;47.608;12.190;2023-03-23T07:37:34;6.57;;;2.90;;
13319;SDS011;59599;47.608;12.190;2023-03-23T07:40:00;5.80;;;3.13;;
13319;SDS011;59599;47.608;12.190;2023-03-23T07:42:39;7.63;;;3.13;;
13319;SDS011;59599;47.608;12.190;2023-03-23T07:45:05;6.00;;;3.50;;
13319;SDS011;59599;47.608;12.190;2023-03-23T07:47:31;5.17;;;3.00;;
13319;SDS011;59599;47.608;12.190;2023-03-23T07:49:57;4.37;;;2.73;;
13319;SDS011;59599;47.608;12.190;2023-03-23T07:52:23;10.33;;;3.27;;
13319;SDS011;59599;47.608;12.190;2023-03-23T07:54:49;5.13;;;3.20;;
13319;SDS011;59599;47.608;12.190;2023-03-23T07:57:15;5.70;;;3.03;;
13319;SDS011;59599;47.608;12.190;2023-03-23T07:59:41;4.93;;;3.17;;
13319;SDS011;59599;47.608;12.190;2023-03-23T08:02:08;5.80;;;2.83;;
13319;SDS011;59599;47.608;12.190;2023-03-23T08:04:34;4.23;;;2.73;;
13319;SDS011;59599;47.608;12.190;2023-03-23T08:07:02;10.07;;;2.60;;
13319;SDS011;59599;47.608;12.190;2023-03-23T08:09:29;7.93;;;2.93;;
13319;SDS011;59599;47.608;12.190;2023-03-23T08:11:55;6.67;;;2.60;;
13319;SDS011;59599;47.608;12.190;2023-03-23T08:14:21;6.23;;;2.57;;
13319;SDS011;59599;47.608;12.190;2023-03-23T08:16:47;6.03;;;3.10;;
13319;SDS011;59599;47.608;12.190;2023-03-23T08:19:13;4.90;;;3.03;;
13319;SDS011;59599;47.608;12.190;2023-03-23T08:21:39;6.80;;;3.07;;
13319;SDS011;59599;47.608;12.190;2023-03-23T08:24:05;6.27;;;3.20;;
13319;SDS011;59599;47.608;12.190;2023-03-23T08:26:31;9.13;;;3.80;;
13319;SDS011;59599;47.608;12.190;2023-03-23T08:28:57;5.03;;;3.10;;
13319;SDS011;59599;47.608;12.190;2023-03-23T08:31:23;6.43;;;3.77;;
13319;SDS011;59599;47.608;12.190;2023-03-23T08:33:49;10.13;;;3.73;;
13319;SDS011;59599;47.608;12.190;2023-03-23T08:36:15;4.63;;;3.60;;
13319;SDS011;59599;47.608;12.190;2023-03-23T08:38:41;8.67;;;3.50;;
13319;SDS011;59599;47.608;12.190;2023-03-23T08:41:09;8.77;;;3.47;;
13319;SDS011;59599;47.608;12.190;2023-03-23T08:43:35;4.03;;;3.30;;
13319;SDS011;59599;47.608;12.190;2023-03-23T08:46:02;5.90;;;3.70;;
13319;SDS011;59599;47.608;12.190;2023-03-23T08:48:33;6.07;;;4.30;;
13319;SDS011;59599;47.608;12.190;2023-03-23T08:51:00;9.37;;;4.23;;
13319;SDS011;59599;47.608;12.190;2023-03-23T08:53:26;6.90;;;3.20;;
13319;SDS011;59599;47.608;12.190;2023-03-23T08:55:55;4.63;;;2.67;;
13319;SDS011;59599;47.608;12.190;2023-03-23T08:58:21;5.03;;;3.13;;
13319;SDS011;59599;47.608;12.190;2023-03-23T09:00:47;5.70;;;2.97;;
13319;SDS011;59599;47.608;12.190;2023-03-23T09:03:13;6.10;;;3.17;;
13319;SDS011;59599;47.608;12.190;2023-03-23T09:05:42;4.80;;;3.10;;
13319;SDS011;59599;47.608;12.190;2023-03-23T09:08:10;5.47;;;3.03;;
13319;SDS011;59599;47.608;12.190;2023-03-23T09:10:37;7.67;;;2.60;;
13319;SDS011;59599;47.608;12.190;2023-03-23T09:13:04;4.97;;;2.90;;
13319;SDS011;59599;47.608;12.190;2023-03-23T09:15:30;5.13;;;2.90;;
13319;SDS011;59599;47.608;12.190;2023-03-23T09:17:56;4.93;;;3.03;;
13319;SDS011;59599;47.608;12.190;2023-03-23T09:20:24;8.37;;;3.57;;
13319;SDS011;59599;47.608;12.190;2023-03-23T09:22:51;6.80;;;3.40;;
13319;SDS011;59599;47.608;12.190;2023-03-23T09:25:19;7.87;;;3.70;;
13319;SDS011;59599;47.608;12.190;2023-03-23T09:27:48;5.00;;;3.73;;
13319;SDS011;59599;47.608;12.190;2023-03-23T09:30:18;6.77;;;3.73;;
13319;SDS011;59599;47.608;12.190;2023-03-23T09:32:44;8.73;;;4.10;;
13319;SDS011;59599;47.608;12.190;2023-03-23T09:35:10;6.40;;;3.73;;
13319;SDS011;59599;47.608;12.190;2023-03-23T09:37:39;5.97;;;3.00;;
13319;SDS011;59599;47.608;12.190;2023-03-23T09:40:06;7.30;;;3.77;;
13319;SDS011;59599;47.608;12.190;2023-03-23T09:45:08;7.37;;;4.10;;
13319;SDS011;59599;47.608;12.190;2023-03-23T09:50:57;8.40;;;4.57;;
13319;SDS011;59599;47.608;12.190;2023-03-23T09:53:49;9.30;;;4.40;;
13319;SDS011;59599;47.608;12.190;2023-03-23T09:56:17;6.17;;;4.37;;
13319;SDS011;59599;47.608;12.190;2023-03-23T09:58:46;9.27;;;4.30;;
13319;SDS011;59599;47.608;12.190;2023-03-23T10:01:26;7.97;;;4.13;;
13319;SDS011;59599;47.608;12.190;2023-03-23T10:03:59;5.17;;;4.40;;
13319;SDS011;59599;47.608;12.190;2023-03-23T10:06:30;6.50;;;4.07;;
13319;SDS011;59599;47.608;12.190;2023-03-23T10:08:57;5.33;;;4.30;;
13319;SDS011;59599;47.608;12.190;2023-03-23T10:14:23;5.73;;;4.70;;
13319;SDS011;59599;47.608;12.190;2023-03-23T10:22:41;8.30;;;5.00;;
13319;SDS011;59599;47.608;12.190;2023-03-23T10:32:40;9.40;;;5.37;;
13319;SDS011;59599;47.608;12.190;2023-03-23T10:35:09;9.67;;;5.20;;
13319;SDS011;59599;47.608;12.190;2023-03-23T10:37:40;7.57;;;5.30;;
13319;SDS011;59599;47.608;12.190;2023-03-23T10:40:16;9.23;;;5.50;;
13319;SDS011;59599;47.608;12.190;2023-03-23T10:42:48;7.73;;;6.00;;
13319;SDS011;59599;47.608;12.190;2023-03-23T10:45:17;9.13;;;6.33;;
13319;SDS011;59599;47.608;12.190;2023-03-23T10:48:15;6.43;;;5.80;;
13319;SDS011;59599;47.608;12.190;2023-03-23T10:50:46;8.83;;;6.57;;
13319;SDS011;59599;47.608;12.190;2023-03-23T10:53:16;9.70;;;7.00;;
13319;SDS011;59599;47.608;12.190;2023-03-23T10:55:48;8.73;;;6.93;;
13319;SDS011;59599;47.608;12.190;2023-03-23T10:58:25;10.20;;;7.00;;
13319;SDS011;59599;47.608;12.190;2023-03-23T11:00:54;13.57;;;6.60;;
13319;SDS011;59599;47.608;12.190;2023-03-23T11:03:23;12.60;;;7.30;;
13319;SDS011;59599;47.608;12.190;2023-03-23T11:05:57;13.97;;;8.37;;
13319;SDS011;59599;47.608;12.190;2023-03-23T11:08:27;9.83;;;7.80;;
13319;SDS011;59599;47.608;12.190;2023-03-23T11:10:56;12.63;;;7.77;;
13319;SDS011;59599;47.608;12.190;2023-03-23T11:13:29;11.57;;;7.90;;
13319;SDS011;59599;47.608;12.190;2023-03-23T11:15:56;9.50;;;8.53;;
13319;SDS011;59599;47.608;12.190;2023-03-23T11:18:24;12.23;;;7.37;;
13319;SDS011;59599;47.608;12.190;2023-03-23T11:20:53;10.50;;;8.57;;
13319;SDS011;59599;47.608;12.190;2023-03-23T11:28:43;9.83;;;7.60;;
13319;SDS011;59599;47.608;12.190;2023-03-23T11:31:16;8.23;;;7.43;;
13319;SDS011;59599;47.608;12.190;2023-03-23T11:36:30;12.63;;;8.87;;
13319;SDS011;59599;47.608;12.190;2023-03-23T11:38:58;12.23;;;8.53;;
13319;SDS011;59599;47.608;12.190;2023-03-23T11:41:24;12.48;;;8.27;;
13319;SDS011;59599;47.608;12.190;2023-03-23T11:43:55;7.63;;;6.82;;
13319;SDS011;59599;47.608;12.190;2023-03-23T11:46:34;6.57;;;5.68;;
13319;SDS011;59599;47.608;12.190;2023-03-23T11:49:15;10.20;;;5.85;;
13319;SDS011;59599;47.608;12.190;2023-03-23T11:51:51;7.70;;;6.43;;
13319;SDS011;59599;47.608;12.190;2023-03-23T11:54:28;8.95;;;5.85;;
13319;SDS011;59599;47.608;12.190;2023-03-23T11:56:57;8.10;;;6.05;;
13319;SDS011;59599;47.608;12.190;2023-03-23T11:59:29;9.65;;;6.32;;
13319;SDS011;59599;47.608;12.190;2023-03-23T12:05:11;12.40;;;6.82;;
13319;SDS011;59599;47.608;12.190;2023-03-23T12:10:31;8.95;;;6.68;;
13319;SDS011;59599;47.608;12.190;2023-03-23T12:27:13;9.20;;;7.45;;
13319;SDS011;59599;47.608;12.190;2023-03-23T12:30:05;8.55;;;7.35;;
13319;SDS011;59599;47.608;12.190;2023-03-23T12:33:02;9.27;;;6.93;;
13319;SDS011;59599;47.608;12.190;2023-03-23T12:35:49;9.77;;;7.75;;
13319;SDS011;59599;47.608;12.190;2023-03-23T12:38:43;10.60;;;7.45;;
13319;SDS011;59599;47.608;12.190;2023-03-23T12:41:40;9.52;;;7.82;;
13319;SDS011;59599;47.608;12.190;2023-03-23T12:44:29;10.70;;;8.70;;
13319;SDS011;59599;47.608;12.190;2023-03-23T12:47:54;9.82;;;8.00;;
13319;SDS011;59599;47.608;12.190;2023-03-23T12:50:16;7.90;;;7.10;;
13319;SDS011;59599;47.608;12.190;2023-03-23T12:55:43;8.02;;;7.07;;
13319;SDS011;59599;47.608;12.190;2023-03-23T12:58:21;8.15;;;5.65;;
13319;SDS011;59599;47.608;12.190;2023-03-23T13:01:10;10.15;;;6.30;;
13319;SDS011;59599;47.608;12.190;2023-03-23T13:03:54;7.45;;;6.65;;
13319;SDS011;59599;47.608;12.190;2023-03-23T13:06:29;7.65;;;5.90;;
13319;SDS011;59599;47.608;12.190;2023-03-23T13:09:01;10.50;;;6.88;;
13319;SDS011;59599;47.608;12.190;2023-03-23T13:11:36;7.22;;;5.93;;
13319;SDS011;59599;47.608;12.190;2023-03-23T13:19:06;8.27;;;6.80;;
13319;SDS011;59599;47.608;12.190;2023-03-23T13:21:53;10.57;;;7.43;;
13319;SDS011;59599;47.608;12.190;2023-03-23T13:24:32;9.15;;;7.68;;
13319;SDS011;59599;47.608;12.190;2023-03-23T13:27:00;7.65;;;6.85;;
13319;SDS011;59599;47.608;12.190;2023-03-23T13:29:26;8.93;;;6.95;;
13319;SDS011;59599;47.608;12.190;2023-03-23T13:32:38;7.88;;;6.82;;
13319;SDS011;59599;47.608;12.190;2023-03-23T13:34:43;8.48;;;6.97;;
13319;SDS011;59599;47.608;12.190;2023-03-23T13:37:18;13.13;;;6.95;;
13319;SDS011;59599;47.608;12.190;2023-03-23T13:49:52;9.90;;;8.70;;
13319;SDS011;59599;47.608;12.190;2023-03-23T13:57:52;12.90;;;8.00;;
13319;SDS011;59599;47.608;12.190;2023-03-23T14:03:00;12.73;;;7.57;;
13319;SDS011;59599;47.608;12.190;2023-03-23T14:05:48;8.75;;;7.43;;
13319;SDS011;59599;47.608;12.190;2023-03-23T14:13:47;12.55;;;8.63;;
13319;SDS011;59599;47.608;12.190;2023-03-23T14:16:52;11.48;;;8.50;;
13319;SDS011;59599;47.608;12.190;2023-03-23T14:19:18;10.70;;;8.43;;
13319;SDS011;59599;47.608;12.190;2023-03-23T14:21:50;11.20;;;7.90;;
13319;SDS011;59599;47.608;12.190;2023-03-23T14:24:20;10.10;;;7.70;;
13319;SDS011;59599;47.608;12.190;2023-03-23T14:27:00;10.15;;;7.68;;
13319;SDS011;59599;47.608;12.190;2023-03-23T14:29:33;13.75;;;8.05;;
13319;SDS011;59599;47.608;12.190;2023-03-23T14:31:58;9.60;;;7.57;;
13319;SDS011;59599;47.608;12.190;2023-03-23T14:34:25;9.02;;;7.82;;
13319;SDS011;59599;47.608;12.190;2023-03-23T14:36:53;11.00;;;8.80;;
13319;SDS011;59599;47.608;12.190;2023-03-23T14:41:51;7.72;;;6.45;;
13319;SDS011;59599;47.608;12.190;2023-03-23T14:44:22;7.47;;;6.20;;
13319;SDS011;59599;47.608;12.190;2023-03-23T14:46:50;7.63;;;6.05;;
13319;SDS011;59599;47.608;12.190;2023-03-23T14:49:18;7.63;;;4.90;;
13319;SDS011;59599;47.608;12.190;2023-03-23T14:51:50;9.18;;;5.72;;
13319;SDS011;59599;47.608;12.190;2023-03-23T14:54:27;5.50;;;5.00;;
13319;SDS011;59599;47.608;12.190;2023-03-23T14:56:54;6.15;;;4.95;;
13319;SDS011;59599;47.608;12.190;2023-03-23T14:59:20;5.68;;;4.78;;
13319;SDS011;59599;47.608;12.190;2023-03-23T15:01:47;5.05;;;4.55;;
13319;SDS011;59599;47.608;12.190;2023-03-23T15:04:23;7.95;;;4.13;;
13319;SDS011;59599;47.608;12.190;2023-03-23T15:07:01;6.68;;;3.95;;
13319;SDS011;59599;47.608;12.190;2023-03-23T15:09:29;5.65;;;3.80;;
13319;SDS011;59599;47.608;12.190;2023-03-23T15:11:56;5.20;;;3.67;;
13319;SDS011;59599;47.608;12.190;2023-03-23T15:14:27;6.63;;;3.15;;
13319;SDS011;59599;47.608;12.190;2023-03-23T15:16:55;4.63;;;2.95;;
13319;SDS011;59599;47.608;12.190;2023-03-23T15:19:24;8.10;;;2.90;;
13319;SDS011;59599;47.608;12.190;2023-03-23T15:21:53;4.57;;;3.50;;
13319;SDS011;59599;47.608;12.190;2023-03-23T15:24:38;13.63;;;2.95;;
13319;SDS011;59599;47.608;12.190;2023-03-23T15:27:11;4.10;;;2.78;;
13319;SDS011;59599;47.608;12.190;2023-03-23T15:32:19;4.53;;;2.78;;
13319;SDS011;59599;47.608;12.190;2023-03-23T15:34:56;3.30;;;2.65;;
13319;SDS011;59599;47.608;12.190;2023-03-23T15:37:27;5.97;;;2.95;;
13319;SDS011;59599;47.608;12.190;2023-03-23T15:39:55;3.58;;;2.60;;
13319;SDS011;59599;47.608;12.190;2023-03-23T15:42:25;3.78;;;3.00;;
13319;SDS011;59599;47.608;12.190;2023-03-23T15:45:03;3.63;;;2.45;;
13319;SDS011;59599;47.608;12.190;2023-03-23T15:48:04;3.50;;;2.83;;
13319;SDS011;59599;47.608;12.190;2023-03-23T15:52:51;8.55;;;2.92;;
13319;SDS011;59599;47.608;12.190;2023-03-23T15:57:52;7.38;;;2.78;;
13319;SDS011;59599;47.608;12.190;2023-03-23T16:00:19;4.78;;;2.97;;
13319;SDS011;59599;47.608;12.190;2023-03-23T16:02:46;3.25;;;2.60;;
13319;SDS011;59599;47.608;12.190;2023-03-23T16:05:15;4.85;;;2.88;;
13319;SDS011;59599;47.608;12.190;2023-03-23T16:07:40;4.20;;;2.55;;
13319;SDS011;59599;47.608;12.190;2023-03-23T16:10:07;4.55;;;2.92;;
13319;SDS011;59599;47.608;12.190;2023-03-23T16:12:40;3.97;;;2.75;;
13319;SDS011;59599;47.608;12.190;2023-03-23T16:15:05;4.28;;;3.03;;
13319;SDS011;59599;47.608;12.190;2023-03-23T16:17:33;3.08;;;2.75;;
13319;SDS011;59599;47.608;12.190;2023-03-23T16:19:58;5.05;;;3.28;;
13319;SDS011;59599;47.608;12.190;2023-03-23T16:22:25;5.55;;;3.53;;
13319;SDS011;59599;47.608;12.190;2023-03-23T16:24:51;5.63;;;3.35;;
13319;SDS011;59599;47.608;12.190;2023-03-23T16:27:16;5.75;;;3.40;;
13319;SDS011;59599;47.608;12.190;2023-03-23T16:29:45;5.50;;;3.03;;
13319;SDS011;59599;47.608;12.190;2023-03-23T16:32:11;4.80;;;2.80;;
13319;SDS011;59599;47.608;12.190;2023-03-23T16:34:37;5.30;;;2.50;;
13319;SDS011;59599;47.608;12.190;2023-03-23T16:37:03;3.92;;;2.33;;
13319;SDS011;59599;47.608;12.190;2023-03-23T16:39:30;4.38;;;2.65;;
13319;SDS011;59599;47.608;12.190;2023-03-23T16:41:56;4.63;;;2.20;;
13319;SDS011;59599;47.608;12.190;2023-03-23T16:44:21;6.88;;;2.50;;
13319;SDS011;59599;47.608;12.190;2023-03-23T16:46:47;4.13;;;2.70;;
13319;SDS011;59599;47.608;12.190;2023-03-23T16:49:13;3.80;;;2.85;;
13319;SDS011;59599;47.608;12.190;2023-03-23T16:51:39;4.90;;;2.63;;
13319;SDS011;59599;47.608;12.190;2023-03-23T16:54:05;3.70;;;2.10;;
13319;SDS011;59599;47.608;12.190;2023-03-23T16:56:30;5.47;;;2.17;;
13319;SDS011;59599;47.608;12.190;2023-03-23T16:58:56;3.65;;;2.97;;
13319;SDS011;59599;47.608;12.190;2023-03-23T17:01:21;4.60;;;2.60;;
13319;SDS011;59599;47.608;12.190;2023-03-23T17:03:47;4.32;;;2.40;;
13319;SDS011;59599;47.608;12.190;2023-03-23T17:06:13;3.20;;;2.00;;
13319;SDS011;59599;47.608;12.190;2023-03-23T17:08:39;2.20;;;1.42;;
13319;SDS011;59599;47.608;12.190;2023-03-23T17:11:05;2.90;;;2.13;;
13319;SDS011;59599;47.608;12.190;2023-03-23T17:13:30;3.35;;;1.80;;
13319;SDS011;59599;47.608;12.190;2023-03-23T17:15:56;3.90;;;1.70;;
13319;SDS011;59599;47.608;12.190;2023-03-23T17:18:22;2.50;;;1.80;;
13319;SDS011;59599;47.608;12.190;2023-03-23T17:20:48;2.38;;;1.85;;
13319;SDS011;59599;47.608;12.190;2023-03-23T17:23:16;3.28;;;1.80;;
13319;SDS011;59599;47.608;12.190;2023-03-23T17:25:43;2.30;;;1.70;;
13319;SDS011;59599;47.608;12.190;2023-03-23T17:28:10;2.88;;;1.90;;
13319;SDS011;59599;47.608;12.190;2023-03-23T17:30:38;4.25;;;2.20;;
13319;SDS011;59599;47.608;12.190;2023-03-23T17:33:05;5.10;;;2.00;;
13319;SDS011;59599;47.608;12.190;2023-03-23T17:35:30;4.10;;;1.80;;
13319;SDS011;59599;47.608;12.190;2023-03-23T17:37:57;6.35;;;2.00;;
13319;SDS011;59599;47.608;12.190;2023-03-23T17:40:23;2.88;;;2.08;;
13319;SDS011;59599;47.608;12.190;2023-03-23T17:42:48;2.75;;;2.00;;
13319;SDS011;59599;47.608;12.190;2023-03-23T17:45:14;3.15;;;1.73;;
13319;SDS011;59599;47.608;12.190;2023-03-23T17:47:40;2.50;;;1.98;;
13319;SDS011;59599;47.608;12.190;2023-03-23T17:50:05;4.03;;;2.42;;
13319;SDS011;59599;47.608;12.190;2023-03-23T17:52:32;2.72;;;1.85;;
13319;SDS011;59599;47.608;12.190;2023-03-23T17:54:57;5.25;;;2.40;;
13319;SDS011;59599;47.608;12.190;2023-03-23T17:57:23;3.03;;;2.38;;
13319;SDS011;59599;47.608;12.190;2023-03-23T17:59:49;5.03;;;3.03;;
13319;SDS011;59599;47.608;12.190;2023-03-23T18:02:15;4.15;;;2.80;;
13319;SDS011;59599;47.608;12.190;2023-03-23T18:04:42;5.45;;;2.53;;
13319;SDS011;59599;47.608;12.190;2023-03-23T18:07:09;4.07;;;2.40;;
13319;SDS011;59599;47.608;12.190;2023-03-23T18:09:34;4.00;;;2.60;;
13319;SDS011;59599;47.608;12.190;2023-03-23T18:12:00;3.53;;;2.58;;
13319;SDS011;59599;47.608;12.190;2023-03-23T18:14:25;5.22;;;2.60;;
13319;SDS011;59599;47.608;12.190;2023-03-23T18:16:51;5.15;;;2.72;;
13319;SDS011;59599;47.608;12.190;2023-03-23T18:19:18;3.70;;;2.83;;
13319;SDS011;59599;47.608;12.190;2023-03-23T18:21:43;4.07;;;2.88;;
13319;SDS011;59599;47.608;12.190;2023-03-23T18:24:09;7.60;;;3.33;;
13319;SDS011;59599;47.608;12.190;2023-03-23T18:26:35;6.97;;;4.60;;
13319;SDS011;59599;47.608;12.190;2023-03-23T18:29:01;5.97;;;3.90;;
13319;SDS011;59599;47.608;12.190;2023-03-23T18:31:26;7.78;;;4.28;;
13319;SDS011;59599;47.608;12.190;2023-03-23T18:33:53;6.50;;;3.90;;
13319;SDS011;59599;47.608;12.190;2023-03-23T18:36:20;4.78;;;3.58;;
13319;SDS011;59599;47.608;12.190;2023-03-23T18:38:47;7.72;;;4.07;;
13319;SDS011;59599;47.608;12.190;2023-03-23T18:41:13;5.90;;;3.80;;
13319;SDS011;59599;47.608;12.190;2023-03-23T18:43:39;8.88;;;3.80;;
13319;SDS011;59599;47.608;12.190;2023-03-23T18:46:05;8.40;;;3.78;;
13319;SDS011;59599;47.608;12.190;2023-03-23T18:48:32;6.53;;;4.03;;
13319;SDS011;59599;47.608;12.190;2023-03-23T18:50:58;5.95;;;3.58;;
13319;SDS011;59599;47.608;12.190;2023-03-23T18:53:25;6.67;;;4.00;;
13319;SDS011;59599;47.608;12.190;2023-03-23T18:55:51;8.77;;;5.75;;
13319;SDS011;59599;47.608;12.190;2023-03-23T18:58:18;9.03;;;6.23;;
13319;SDS011;59599;47.608;12.190;2023-03-23T19:00:44;9.10;;;4.77;;
13319;SDS011;59599;47.608;12.190;2023-03-23T19:03:11;7.37;;;3.83;;
13319;SDS011;59599;47.608;12.190;2023-03-23T19:05:38;7.83;;;3.80;;
13319;SDS011;59599;47.608;12.190;2023-03-23T19:08:08;5.87;;;3.77;;
13319;SDS011;59599;47.608;12.190;2023-03-23T19:10:37;4.43;;;3.07;;
13319;SDS011;59599;47.608;12.190;2023-03-23T19:13:04;9.63;;;4.03;;
13319;SDS011;59599;47.608;12.190;2023-03-23T19:15:30;5.67;;;3.87;;
13319;SDS011;59599;47.608;12.190;2023-03-23T19:17:56;8.07;;;3.80;;
13319;SDS011;59599;47.608;12.190;2023-03-23T19:20:22;8.00;;;4.33;;
13319;SDS011;59599;47.608;12.190;2023-03-23T19:22:51;7.00;;;4.30;;
13319;SDS011;59599;47.608;12.190;2023-03-23T19:25:17;8.80;;;4.70;;
13319;SDS011;59599;47.608;12.190;2023-03-23T19:27:43;5.73;;;4.10;;
13319;SDS011;59599;47.608;12.190;2023-03-23T19:30:09;5.63;;;4.30;;
13319;SDS011;59599;47.608;12.190;2023-03-23T19:32:35;6.70;;;4.37;;
13319;SDS011;59599;47.608;12.190;2023-03-23T19:35:00;7.60;;;4.27;;
13319;SDS011;59599;47.608;12.190;2023-03-23T19:37:27;6.03;;;4.73;;
13319;SDS011;59599;47.608;12.190;2023-03-23T19:39:53;8.23;;;4.87;;
13319;SDS011;59599;47.608;12.190;2023-03-23T19:42:19;9.87;;;4.70;;
13319;SDS011;59599;47.608;12.190;2023-03-23T19:44:45;6.10;;;4.07;;
13319;SDS011;59599;47.608;12.190;2023-03-23T19:47:11;7.93;;;4.23;;
13319;SDS011;59599;47.608;12.190;2023-03-23T19:49:37;7.10;;;3.77;;
13319;SDS011;59599;47.608;12.190;2023-03-23T19:52:04;5.17;;;3.67;;
13319;SDS011;59599;47.608;12.190;2023-03-23T19:54:30;3.63;;;3.10;;
13319;SDS011;59599;47.608;12.190;2023-03-23T19:56:55;8.60;;;4.03;;
13319;SDS011;59599;47.608;12.190;2023-03-23T19:59:22;6.10;;;4.00;;
13319;SDS011;59599;47.608;12.190;2023-03-23T20:01:48;7.57;;;4.00;;
13319;SDS011;59599;47.608;12.190;2023-03-23T20:04:14;7.60;;;4.23;;
13319;SDS011;59599;47.608;12.190;2023-03-23T20:06:42;11.40;;;4.30;;
13319;SDS011;59599;47.608;12.190;2023-03-23T20:09:08;8.97;;;4.13;;
13319;SDS011;59599;47.608;12.190;2023-03-23T20:11:34;5.73;;;4.37;;
13319;SDS011;59599;47.608;12.190;2023-03-23T20:14:00;8.80;;;4.80;;
13319;SDS011;59599;47.608;12.190;2023-03-23T20:16:26;8.93;;;4.90;;
13319;SDS011;59599;47.608;12.190;2023-03-23T20:18:52;8.70;;;4.27;;
13319;SDS011;59599;47.608;12.190;2023-03-23T20:21:19;5.47;;;4.50;;
13319;SDS011;59599;47.608;12.190;2023-03-23T20:23:46;9.30;;;4.83;;
13319;SDS011;59599;47.608;12.190;2023-03-23T20:26:17;9.57;;;4.50;;
13319;SDS011;59599;47.608;12.190;2023-03-23T20:28:45;10.00;;;4.43;;
13319;SDS011;59599;47.608;12.190;2023-03-23T20:31:13;6.53;;;5.07;;
13319;SDS011;59599;47.608;12.190;2023-03-23T20:33:41;7.57;;;3.93;;
13319;SDS011;59599;47.608;12.190;2023-03-23T20:36:07;7.10;;;3.97;;
13319;SDS011;59599;47.608;12.190;2023-03-23T20:38:34;7.00;;;4.67;;
13319;SDS011;59599;47.608;12.190;2023-03-23T20:41:01;7.97;;;4.90;;
13319;SDS011;59599;47.608;12.190;2023-03-23T20:43:35;6.87;;;4.40;;
13319;SDS011;59599;47.608;12.190;2023-03-23T20:46:02;7.03;;;4.43;;
13319;SDS011;59599;47.608;12.190;2023-03-23T20:48:30;10.40;;;4.60;;
13319;SDS011;59599;47.608;12.190;2023-03-23T20:50:58;8.13;;;4.43;;